createdAt,value
2018-06-03T00:00:36.200Z,22.20
2018-06-03T00:03:03.866Z,22.20
2018-06-03T00:05:31.521Z,22.20
2018-06-03T00:07:59.194Z,22.20
2018-06-03T00:10:26.849Z,22.20
2018-06-03T00:12:54.517Z,22.20
2018-06-03T00:15:22.176Z,22.20
2018-06-03T00:17:49.835Z,22.20
2018-06-03T00:20:29.421Z,22.20
2018-06-03T00:22:57.933Z,22.20
2018-06-03T00:25:25.602Z,22.10
2018-06-03T00:27:53.294Z,22.20
2018-06-03T00:30:20.956Z,22.10
2018-06-03T00:32:48.592Z,22.10
2018-06-03T00:35:16.246Z,22.10
2018-06-03T00:37:43.912Z,22.10
2018-06-03T00:40:11.602Z,22.10
2018-06-03T00:42:39.263Z,22.10
2018-06-03T00:45:06.926Z,22.10
2018-06-03T00:47:34.588Z,22.10
2018-06-03T00:50:02.247Z,22.10
2018-06-03T00:52:29.908Z,22.10
2018-06-03T00:54:57.567Z,22.10
2018-06-03T00:57:25.609Z,22.10
2018-06-03T00:59:53.273Z,22.10
2018-06-03T01:02:20.932Z,22.00
2018-06-03T01:04:48.598Z,22.00
2018-06-03T01:07:16.256Z,22.00
2018-06-03T01:09:43.922Z,22.10
2018-06-03T01:12:11.614Z,22.00
2018-06-03T01:14:39.270Z,22.00
2018-06-03T01:17:06.931Z,22.00
2018-06-03T01:19:34.593Z,22.00
2018-06-03T01:22:02.254Z,22.00
2018-06-03T01:24:29.918Z,22.00
2018-06-03T01:26:57.575Z,22.00
2018-06-03T01:29:25.488Z,22.00
2018-06-03T01:31:53.933Z,22.00
2018-06-03T01:34:21.597Z,22.00
2018-06-03T01:36:49.248Z,22.00
2018-06-03T01:39:16.913Z,22.00
2018-06-03T01:41:44.575Z,22.00
2018-06-03T01:44:12.315Z,22.00
2018-06-03T01:46:39.976Z,22.00
2018-06-03T01:49:07.637Z,22.00
2018-06-03T01:51:35.322Z,22.00
2018-06-03T01:54:02.970Z,21.90
2018-06-03T01:56:30.627Z,21.90
2018-06-03T01:58:58.285Z,21.90
2018-06-03T02:01:26.424Z,21.90
2018-06-03T02:03:54.840Z,21.90
2018-06-03T02:06:22.502Z,21.90
2018-06-03T02:08:50.161Z,21.90
2018-06-03T02:11:17.861Z,21.90
2018-06-03T02:13:45.518Z,21.90
2018-06-03T02:16:13.169Z,21.90
2018-06-03T02:18:40.836Z,21.90
2018-06-03T02:21:08.501Z,21.90
2018-06-03T02:23:36.157Z,21.90
2018-06-03T02:26:03.805Z,21.90
2018-06-03T02:28:31.460Z,21.90
2018-06-03T02:30:59.147Z,21.90
2018-06-03T02:33:26.858Z,21.90
2018-06-03T02:35:55.286Z,21.90
2018-06-03T02:38:22.947Z,21.90
2018-06-03T02:40:50.615Z,21.90
2018-06-03T02:43:18.281Z,21.90
2018-06-03T02:45:45.934Z,21.90
2018-06-03T02:48:13.595Z,21.90
2018-06-03T02:50:41.269Z,21.90
2018-06-03T02:53:08.934Z,21.90
2018-06-03T02:55:36.593Z,21.80
2018-06-03T02:58:04.294Z,21.90
2018-06-03T03:00:32.729Z,21.80
2018-06-03T03:03:00.421Z,21.80
2018-06-03T03:05:28.085Z,21.80
2018-06-03T03:07:55.749Z,21.80
2018-06-03T03:10:23.484Z,21.80
2018-06-03T03:12:51.141Z,21.80
2018-06-03T03:15:18.802Z,21.80
2018-06-03T03:17:46.464Z,21.80
2018-06-03T03:20:14.231Z,21.80
2018-06-03T03:22:41.893Z,21.80
2018-06-03T03:25:09.554Z,21.80
2018-06-03T03:27:37.214Z,21.80
2018-06-03T03:30:04.876Z,21.80
2018-06-03T03:32:32.533Z,21.80
2018-06-03T03:35:00.197Z,21.80
2018-06-03T03:37:28.045Z,21.80
2018-06-03T03:39:55.738Z,21.70
2018-06-03T03:42:23.396Z,21.80
2018-06-03T03:44:51.053Z,21.80
2018-06-03T03:47:18.715Z,21.80
2018-06-03T03:49:46.380Z,21.70
2018-06-03T03:52:14.037Z,21.80
2018-06-03T03:54:41.700Z,21.70
2018-06-03T03:57:09.368Z,21.70
2018-06-03T03:59:37.020Z,21.70
2018-06-03T04:02:04.683Z,21.70
2018-06-03T04:04:32.348Z,21.70
2018-06-03T04:07:00.062Z,21.70
2018-06-03T04:09:28.157Z,21.70
2018-06-03T04:11:55.857Z,21.70
2018-06-03T04:15:14.306Z,21.70
2018-06-03T04:17:43.499Z,21.70
2018-06-03T04:20:12.737Z,21.70
2018-06-03T04:22:41.972Z,21.70
2018-06-03T04:25:11.190Z,21.70
2018-06-03T04:27:40.363Z,21.70
2018-06-03T04:30:09.626Z,21.70
2018-06-03T04:32:38.823Z,21.70
2018-06-03T04:35:08.026Z,21.70
2018-06-03T04:37:37.222Z,21.70
2018-06-03T04:40:06.969Z,21.70
2018-06-03T04:42:36.199Z,21.70
2018-06-03T04:45:05.421Z,21.70
2018-06-03T04:47:34.593Z,21.70
2018-06-03T04:50:03.827Z,21.70
2018-06-03T04:52:33.044Z,21.70
2018-06-03T04:55:02.255Z,21.70
2018-06-03T04:57:31.418Z,21.70
2018-06-03T05:00:00.613Z,21.60
2018-06-03T05:02:29.809Z,21.60
2018-06-03T05:04:59.074Z,21.60
2018-06-03T05:07:28.252Z,21.60
2018-06-03T05:09:57.513Z,21.60
2018-06-03T05:12:26.763Z,21.60
2018-06-03T05:14:56.013Z,21.60
2018-06-03T05:17:25.220Z,21.60
2018-06-03T05:19:54.428Z,21.60
2018-06-03T05:22:23.628Z,21.60
2018-06-03T05:24:52.884Z,21.70
2018-06-03T05:27:22.096Z,21.70
2018-06-03T05:29:51.361Z,21.70
2018-06-03T05:32:20.644Z,21.70
2018-06-03T05:34:49.915Z,21.70
2018-06-03T05:37:19.148Z,21.70
2018-06-03T05:39:48.374Z,21.70
2018-06-03T05:42:17.709Z,21.70
2018-06-03T05:44:47.369Z,21.70
2018-06-03T05:47:16.649Z,21.70
2018-06-03T05:49:45.880Z,21.70
2018-06-03T05:52:15.387Z,21.70
2018-06-03T05:54:44.644Z,21.70
2018-06-03T05:57:13.889Z,21.70
2018-06-03T05:59:43.153Z,21.70
2018-06-03T06:02:12.516Z,21.70
2018-06-03T06:04:41.838Z,21.70
2018-06-03T06:07:11.101Z,21.80
2018-06-03T06:09:40.385Z,21.80
2018-06-03T06:12:09.715Z,21.80
2018-06-03T06:14:39.007Z,21.90
2018-06-03T06:17:08.755Z,21.90
2018-06-03T06:19:38.041Z,21.90
2018-06-03T06:22:07.547Z,21.90
2018-06-03T06:27:05.686Z,21.80
2018-06-03T06:29:34.945Z,21.90
2018-06-03T06:32:04.364Z,21.90
2018-06-03T06:34:33.628Z,21.90
2018-06-03T06:37:02.948Z,21.90
2018-06-03T06:39:32.193Z,21.90
2018-06-03T06:42:01.525Z,21.90
2018-06-03T06:44:30.816Z,21.90
2018-06-03T06:47:00.151Z,21.90
2018-06-03T06:49:29.609Z,21.90
2018-06-03T06:51:58.967Z,21.90
2018-06-03T06:54:29.337Z,21.90
2018-06-03T06:56:58.535Z,21.90
2018-06-03T06:59:27.796Z,21.90
2018-06-03T07:01:57.187Z,21.90
2018-06-03T07:04:26.475Z,21.90
2018-06-03T07:06:55.719Z,21.90
2018-06-03T07:09:24.976Z,21.90
2018-06-03T07:11:54.460Z,21.90
2018-06-03T07:14:23.743Z,21.90
2018-06-03T07:16:53.078Z,21.90
2018-06-03T07:19:22.893Z,21.90
2018-06-03T07:21:52.493Z,21.90
2018-06-03T07:24:21.817Z,22.00
2018-06-03T07:26:51.195Z,22.00
2018-06-03T07:29:21.288Z,22.00
2018-06-03T07:31:50.652Z,22.00
2018-06-03T07:34:19.901Z,22.00
2018-06-03T07:36:49.203Z,22.00
2018-06-03T07:39:18.450Z,22.00
2018-06-03T07:41:48.041Z,22.10
2018-06-03T07:44:17.292Z,22.10
2018-06-03T07:46:46.595Z,22.10
2018-06-03T07:49:15.909Z,22.10
2018-06-03T07:51:45.226Z,22.10
2018-06-03T07:54:14.968Z,22.10
2018-06-03T18:57:56.097Z,22.90
2018-06-03T19:00:25.405Z,23.00
2018-06-03T19:02:54.850Z,22.90
2018-06-03T19:05:24.648Z,23.00
2018-06-03T19:07:53.963Z,23.00
2018-06-03T19:10:23.359Z,23.00
2018-06-03T19:12:52.678Z,22.70
2018-06-03T19:15:21.941Z,22.50
2018-06-03T19:17:51.245Z,22.40
2018-06-03T19:20:20.557Z,22.30
2018-06-03T19:22:49.929Z,22.20
2018-06-03T19:25:19.225Z,22.20
2018-06-03T19:27:48.516Z,22.10
2018-06-03T19:30:17.913Z,22.10
2018-06-03T19:32:47.194Z,22.10
2018-06-03T19:35:16.521Z,22.10
2018-06-03T19:37:45.819Z,22.10
2018-06-03T19:40:15.159Z,22.00
2018-06-03T19:42:44.481Z,22.00
2018-06-03T19:45:13.801Z,22.00
2018-06-03T19:47:43.097Z,21.90
2018-06-03T19:50:12.475Z,21.90
2018-06-03T19:52:41.764Z,21.80
2018-06-03T19:55:11.048Z,21.80
2018-06-03T19:57:40.329Z,21.80
2018-06-03T20:00:09.837Z,21.80
2018-06-03T20:02:39.454Z,21.80
2018-06-03T20:05:08.776Z,21.70
2018-06-03T20:07:38.069Z,21.70
2018-06-03T20:10:07.367Z,21.80
2018-06-03T20:12:36.569Z,22.00
2018-06-03T20:15:05.777Z,22.10
2018-06-03T20:17:34.989Z,22.20
2018-06-03T20:20:04.268Z,22.20
2018-06-03T20:22:33.483Z,22.30
2018-06-03T20:25:02.660Z,22.30
2018-06-03T20:27:31.859Z,22.30
2018-06-03T20:30:01.053Z,22.30
2018-06-03T20:32:30.297Z,22.30
2018-06-03T20:34:59.904Z,22.40
2018-06-03T20:37:29.131Z,22.40
2018-06-03T20:39:58.360Z,22.40
2018-06-03T20:42:27.579Z,22.40
2018-06-03T20:44:56.765Z,22.40
2018-06-03T20:47:26.343Z,22.40
2018-06-03T20:49:55.530Z,22.40
2018-06-03T20:52:24.737Z,22.30
2018-06-03T20:54:53.952Z,22.40
2018-06-03T20:57:23.150Z,22.30
2018-06-03T20:59:52.348Z,22.40
2018-06-03T21:02:21.570Z,22.30
2018-06-03T21:04:50.828Z,22.30
2018-06-03T21:07:20.048Z,22.40
2018-06-03T21:09:49.249Z,22.30
2018-06-03T21:12:18.452Z,22.30
2018-06-03T21:14:47.645Z,22.30
2018-06-03T21:17:16.851Z,22.30
2018-06-03T21:19:46.049Z,22.30
2018-06-03T21:22:15.236Z,22.30
2018-06-03T21:24:44.438Z,22.30
2018-06-03T21:27:13.637Z,22.30
2018-06-03T21:29:42.831Z,22.30
2018-06-03T21:32:12.034Z,22.30
2018-06-03T21:34:41.231Z,22.30
2018-06-03T21:37:10.424Z,22.30
2018-06-03T21:39:40.062Z,22.30
2018-06-03T21:42:09.333Z,22.30
2018-06-03T21:44:38.527Z,22.30
2018-06-03T21:47:07.729Z,22.30
2018-06-03T21:49:36.902Z,22.30
2018-06-03T21:52:06.170Z,22.30
2018-06-03T21:54:35.468Z,22.30
2018-06-03T21:57:04.668Z,22.30
2018-06-03T21:59:33.893Z,22.30
2018-06-03T22:02:03.128Z,22.30
2018-06-03T22:04:32.364Z,22.30
2018-06-03T22:07:01.562Z,22.30
2018-06-03T22:09:30.816Z,22.30
2018-06-03T22:12:00.185Z,22.30
2018-06-03T22:14:29.361Z,22.30
2018-06-03T22:16:58.561Z,22.30
2018-06-03T22:19:27.747Z,22.30
2018-06-03T22:21:57.092Z,22.20
2018-06-03T22:24:26.257Z,22.20
2018-06-03T22:26:55.442Z,22.20
2018-06-03T22:29:24.653Z,22.20
2018-06-03T22:31:53.909Z,22.20
2018-06-03T22:34:23.115Z,22.20
2018-06-03T22:36:52.352Z,22.20
2018-06-03T22:39:21.556Z,22.20
2018-06-03T22:41:50.956Z,22.20
2018-06-03T22:44:20.299Z,22.20
2018-06-03T22:46:49.499Z,22.20
2018-06-03T22:49:18.702Z,22.20
2018-06-03T22:51:47.904Z,22.20
2018-06-03T22:54:17.093Z,22.20
2018-06-03T22:57:01.122Z,22.20
2018-06-03T22:59:30.307Z,22.20
2018-06-03T23:01:59.545Z,22.20
2018-06-03T23:04:28.739Z,22.20
2018-06-03T23:06:57.953Z,22.20
2018-06-03T23:09:27.144Z,22.20
2018-06-03T23:11:56.463Z,22.20
2018-06-03T23:14:25.684Z,22.20
2018-06-03T23:16:54.882Z,22.10
2018-06-03T23:19:24.073Z,22.10
2018-06-03T23:21:53.335Z,22.10
2018-06-03T23:24:22.525Z,22.10
2018-06-03T23:26:51.721Z,22.10
2018-06-03T23:29:20.903Z,22.10
2018-06-03T23:31:50.126Z,22.10
2018-06-03T23:34:19.317Z,22.10
2018-06-03T23:36:48.516Z,22.10
2018-06-03T23:39:17.693Z,22.10
2018-06-03T23:41:46.926Z,22.10
2018-06-03T23:44:16.217Z,22.10
2018-06-03T23:46:45.459Z,22.10
2018-06-03T23:49:14.658Z,22.10
2018-06-03T23:51:43.913Z,22.10
2018-06-03T23:54:19.362Z,22.10
2018-06-03T23:56:48.563Z,22.10
2018-06-03T23:59:17.796Z,22.10
